sensor_id;sensor_type;location;lat;lon;timestamp;temperature;humidity
8684;DHT22;4379;59.744;18.206;2023-04-16T00:00:32;-2.10;99.90
8684;DHT22;4379;59.744;18.206;2023-04-16T00:02:59;-2.10;99.90
8684;DHT22;4379;59.744;18.206;2023-04-16T00:05:27;-2.10;99.90
8684;DHT22;4379;59.744;18.206;2023-04-16T00:07:57;-2.20;99.90
8684;DHT22;4379;59.744;18.206;2023-04-16T00:10:24;-2.20;99.90
8684;DHT22;4379;59.744;18.206;2023-04-16T00:12:51;-2.20;99.90
8684;DHT22;4379;59.744;18.206;2023-04-16T00:15:18;-2.20;99.90
8684;DHT22;4379;59.744;18.206;2023-04-16T00:17:45;-2.20;99.90
8684;DHT22;4379;59.744;18.206;2023-04-16T00:20:13;-2.20;99.90
8684;DHT22;4379;59.744;18.206;2023-04-16T00:22:43;-2.30;99.90
8684;DHT22;4379;59.744;18.206;2023-04-16T00:25:10;-2.30;99.90
8684;DHT22;4379;59.744;18.206;2023-04-16T00:27:37;-2.30;99.90
8684;DHT22;4379;59.744;18.206;2023-04-16T00:30:05;-2.30;99.90
8684;DHT22;4379;59.744;18.206;2023-04-16T00:32:33;-2.30;99.90
8684;DHT22;4379;59.744;18.206;2023-04-16T00:35:00;-2.30;99.90
8684;DHT22;4379;59.744;18.206;2023-04-16T00:37:27;-2.30;99.90
8684;DHT22;4379;59.744;18.206;2023-04-16T00:39:54;-2.40;99.90
8684;DHT22;4379;59.744;18.206;2023-04-16T00:42:25;-2.30;99.90
8684;DHT22;4379;59.744;18.206;2023-04-16T00:44:52;-2.30;99.90
8684;DHT22;4379;59.744;18.206;2023-04-16T00:47:20;-2.30;99.90
8684;DHT22;4379;59.744;18.206;2023-04-16T00:49:47;-2.40;99.90
8684;DHT22;4379;59.744;18.206;2023-04-16T00:52:15;-2.40;99.90
8684;DHT22;4379;59.744;18.206;2023-04-16T00:54:42;-2.40;99.90
8684;DHT22;4379;59.744;18.206;2023-04-16T00:57:09;-2.40;99.90
8684;DHT22;4379;59.744;18.206;2023-04-16T00:59:36;-2.40;99.90
8684;DHT22;4379;59.744;18.206;2023-04-16T01:02:04;-2.40;99.90
8684;DHT22;4379;59.744;18.206;2023-04-16T01:04:32;-2.40;99.90
8684;DHT22;4379;59.744;18.206;2023-04-16T01:07:00;-2.40;99.90
8684;DHT22;4379;59.744;18.206;2023-04-16T01:09:27;-2.50;99.90
8684;DHT22;4379;59.744;18.206;2023-04-16T01:11:54;-2.50;99.90
8684;DHT22;4379;59.744;18.206;2023-04-16T01:14:22;-2.50;99.90
8684;DHT22;4379;59.744;18.206;2023-04-16T01:16:49;-2.50;99.90
8684;DHT22;4379;59.744;18.206;2023-04-16T01:19:16;-2.60;99.90
8684;DHT22;4379;59.744;18.206;2023-04-16T01:21:43;-2.50;99.90
8684;DHT22;4379;59.744;18.206;2023-04-16T01:24:10;-2.60;99.90
8684;DHT22;4379;59.744;18.206;2023-04-16T01:26:37;-2.50;99.90
8684;DHT22;4379;59.744;18.206;2023-04-16T01:29:04;-2.50;99.90
8684;DHT22;4379;59.744;18.206;2023-04-16T01:31:32;-2.60;99.90
8684;DHT22;4379;59.744;18.206;2023-04-16T01:33:59;-2.60;99.90
8684;DHT22;4379;59.744;18.206;2023-04-16T01:36:26;-2.60;99.90
8684;DHT22;4379;59.744;18.206;2023-04-16T01:38:53;-2.60;99.90
8684;DHT22;4379;59.744;18.206;2023-04-16T01:41:21;-2.60;99.90
8684;DHT22;4379;59.744;18.206;2023-04-16T01:43:48;-2.70;99.90
8684;DHT22;4379;59.744;18.206;2023-04-16T01:46:22;-2.60;99.90
8684;DHT22;4379;59.744;18.206;2023-04-16T01:48:53;-2.70;99.90
8684;DHT22;4379;59.744;18.206;2023-04-16T01:51:21;-2.60;99.90
8684;DHT22;4379;59.744;18.206;2023-04-16T01:53:48;-2.60;99.90
8684;DHT22;4379;59.744;18.206;2023-04-16T01:56:16;-2.70;99.90
8684;DHT22;4379;59.744;18.206;2023-04-16T01:58:43;-2.70;99.90
8684;DHT22;4379;59.744;18.206;2023-04-16T02:01:12;-2.70;99.90
8684;DHT22;4379;59.744;18.206;2023-04-16T02:03:40;-2.60;99.90
8684;DHT22;4379;59.744;18.206;2023-04-16T02:06:08;-2.70;99.90
8684;DHT22;4379;59.744;18.206;2023-04-16T02:08:35;-2.70;99.90
8684;DHT22;4379;59.744;18.206;2023-04-16T02:11:02;-2.60;99.90
8684;DHT22;4379;59.744;18.206;2023-04-16T02:13:29;-2.60;99.90
8684;DHT22;4379;59.744;18.206;2023-04-16T02:15:59;-2.60;99.90
8684;DHT22;4379;59.744;18.206;2023-04-16T02:18:26;-2.60;99.90
8684;DHT22;4379;59.744;18.206;2023-04-16T02:20:57;-2.60;99.90
8684;DHT22;4379;59.744;18.206;2023-04-16T02:23:25;-2.70;99.90
8684;DHT22;4379;59.744;18.206;2023-04-16T02:25:52;-2.70;99.90
8684;DHT22;4379;59.744;18.206;2023-04-16T02:28:20;-2.70;99.90
8684;DHT22;4379;59.744;18.206;2023-04-16T02:30:47;-2.70;99.90
8684;DHT22;4379;59.744;18.206;2023-04-16T02:33:14;-2.70;99.90
8684;DHT22;4379;59.744;18.206;2023-04-16T02:35:43;-2.80;99.90
8684;DHT22;4379;59.744;18.206;2023-04-16T02:38:11;-2.70;99.90
8684;DHT22;4379;59.744;18.206;2023-04-16T02:40:38;-2.70;99.90
8684;DHT22;4379;59.744;18.206;2023-04-16T02:43:05;-2.80;99.90
8684;DHT22;4379;59.744;18.206;2023-04-16T02:45:32;-2.80;99.90
8684;DHT22;4379;59.744;18.206;2023-04-16T02:48:00;-2.80;99.90
8684;DHT22;4379;59.744;18.206;2023-04-16T02:50:27;-2.80;99.90
8684;DHT22;4379;59.744;18.206;2023-04-16T02:52:56;-2.80;99.90
8684;DHT22;4379;59.744;18.206;2023-04-16T02:55:23;-2.90;99.90
8684;DHT22;4379;59.744;18.206;2023-04-16T02:57:51;-2.90;99.90
8684;DHT22;4379;59.744;18.206;2023-04-16T03:00:18;-2.80;99.90
8684;DHT22;4379;59.744;18.206;2023-04-16T03:02:46;-2.80;99.90
8684;DHT22;4379;59.744;18.206;2023-04-16T03:05:13;-2.80;99.90
8684;DHT22;4379;59.744;18.206;2023-04-16T03:07:40;-2.80;99.90
8684;DHT22;4379;59.744;18.206;2023-04-16T03:10:08;-2.90;99.90
8684;DHT22;4379;59.744;18.206;2023-04-16T03:12:35;-2.90;99.90
8684;DHT22;4379;59.744;18.206;2023-04-16T03:15:03;-3.00;99.90
8684;DHT22;4379;59.744;18.206;2023-04-16T03:17:33;-3.00;99.90
8684;DHT22;4379;59.744;18.206;2023-04-16T03:20:00;-3.00;99.90
8684;DHT22;4379;59.744;18.206;2023-04-16T03:22:27;-3.00;99.90
8684;DHT22;4379;59.744;18.206;2023-04-16T03:24:56;-2.90;99.90
8684;DHT22;4379;59.744;18.206;2023-04-16T03:27:23;-3.00;99.90
8684;DHT22;4379;59.744;18.206;2023-04-16T03:29:50;-2.90;99.90
8684;DHT22;4379;59.744;18.206;2023-04-16T03:32:17;-2.90;99.90
8684;DHT22;4379;59.744;18.206;2023-04-16T03:34:44;-3.00;99.90
8684;DHT22;4379;59.744;18.206;2023-04-16T03:37:11;-2.90;99.90
8684;DHT22;4379;59.744;18.206;2023-04-16T03:39:39;-3.00;99.90
8684;DHT22;4379;59.744;18.206;2023-04-16T03:42:06;-2.90;99.90
8684;DHT22;4379;59.744;18.206;2023-04-16T03:44:33;-2.90;99.90
8684;DHT22;4379;59.744;18.206;2023-04-16T03:47:00;-2.90;99.90
8684;DHT22;4379;59.744;18.206;2023-04-16T03:49:27;-2.90;99.90
8684;DHT22;4379;59.744;18.206;2023-04-16T03:51:54;-2.90;99.90
8684;DHT22;4379;59.744;18.206;2023-04-16T03:54:21;-2.80;99.90
8684;DHT22;4379;59.744;18.206;2023-04-16T03:56:49;-2.80;99.90
8684;DHT22;4379;59.744;18.206;2023-04-16T03:59:16;-2.70;99.90
8684;DHT22;4379;59.744;18.206;2023-04-16T04:01:45;-2.70;99.90
8684;DHT22;4379;59.744;18.206;2023-04-16T04:04:13;-2.60;99.90
8684;DHT22;4379;59.744;18.206;2023-04-16T04:06:41;-2.60;99.90
8684;DHT22;4379;59.744;18.206;2023-04-16T04:09:08;-2.40;99.90
8684;DHT22;4379;59.744;18.206;2023-04-16T04:11:35;-2.40;99.90
8684;DHT22;4379;59.744;18.206;2023-04-16T04:14:02;-2.30;99.90
8684;DHT22;4379;59.744;18.206;2023-04-16T04:16:31;-2.20;99.90
8684;DHT22;4379;59.744;18.206;2023-04-16T04:19:01;-2.10;99.90
8684;DHT22;4379;59.744;18.206;2023-04-16T04:21:30;-2.00;99.90
8684;DHT22;4379;59.744;18.206;2023-04-16T04:23:57;-1.90;99.90
8684;DHT22;4379;59.744;18.206;2023-04-16T04:26:25;-1.70;99.90
8684;DHT22;4379;59.744;18.206;2023-04-16T04:28:52;-1.70;99.90
8684;DHT22;4379;59.744;18.206;2023-04-16T04:31:19;-1.50;99.90
8684;DHT22;4379;59.744;18.206;2023-04-16T04:33:46;-1.50;99.90
8684;DHT22;4379;59.744;18.206;2023-04-16T04:36:13;-1.60;99.90
8684;DHT22;4379;59.744;18.206;2023-04-16T04:38:40;-1.60;99.90
8684;DHT22;4379;59.744;18.206;2023-04-16T04:41:07;-1.50;99.90
8684;DHT22;4379;59.744;18.206;2023-04-16T04:43:34;-1.20;99.90
8684;DHT22;4379;59.744;18.206;2023-04-16T04:46:02;-1.10;99.90
8684;DHT22;4379;59.744;18.206;2023-04-16T04:48:29;-1.10;99.90
8684;DHT22;4379;59.744;18.206;2023-04-16T04:51:02;-1.20;99.90
8684;DHT22;4379;59.744;18.206;2023-04-16T04:53:31;-0.90;99.90
8684;DHT22;4379;59.744;18.206;2023-04-16T04:55:58;-1.00;99.90
8684;DHT22;4379;59.744;18.206;2023-04-16T04:58:37;-1.10;99.90
8684;DHT22;4379;59.744;18.206;2023-04-16T05:01:04;-0.70;99.90
8684;DHT22;4379;59.744;18.206;2023-04-16T05:03:32;-0.90;99.90
8684;DHT22;4379;59.744;18.206;2023-04-16T05:05:59;-0.80;99.90
8684;DHT22;4379;59.744;18.206;2023-04-16T05:08:26;-0.50;99.90
8684;DHT22;4379;59.744;18.206;2023-04-16T05:10:53;-0.40;99.90
8684;DHT22;4379;59.744;18.206;2023-04-16T05:13:20;-0.40;99.90
8684;DHT22;4379;59.744;18.206;2023-04-16T05:15:48;-0.30;99.90
8684;DHT22;4379;59.744;18.206;2023-04-16T05:18:15;-0.20;99.90
8684;DHT22;4379;59.744;18.206;2023-04-16T05:20:42;-0.30;99.90
8684;DHT22;4379;59.744;18.206;2023-04-16T05:23:12;-0.40;99.90
8684;DHT22;4379;59.744;18.206;2023-04-16T05:25:41;-0.10;99.90
8684;DHT22;4379;59.744;18.206;2023-04-16T05:28:09;-0.40;99.90
8684;DHT22;4379;59.744;18.206;2023-04-16T05:30:36;0.10;99.90
8684;DHT22;4379;59.744;18.206;2023-04-16T05:33:03;0.20;99.90
8684;DHT22;4379;59.744;18.206;2023-04-16T05:35:30;0.60;99.90
8684;DHT22;4379;59.744;18.206;2023-04-16T05:37:57;1.00;99.90
8684;DHT22;4379;59.744;18.206;2023-04-16T05:40:24;1.10;99.90
8684;DHT22;4379;59.744;18.206;2023-04-16T05:42:52;1.00;99.90
8684;DHT22;4379;59.744;18.206;2023-04-16T05:45:19;1.10;99.90
8684;DHT22;4379;59.744;18.206;2023-04-16T05:47:46;1.90;99.90
8684;DHT22;4379;59.744;18.206;2023-04-16T05:50:14;3.10;99.90
8684;DHT22;4379;59.744;18.206;2023-04-16T05:52:41;3.80;99.90
8684;DHT22;4379;59.744;18.206;2023-04-16T05:55:10;4.80;99.90
8684;DHT22;4379;59.744;18.206;2023-04-16T05:57:37;6.50;99.90
8684;DHT22;4379;59.744;18.206;2023-04-16T06:00:05;6.30;99.90
8684;DHT22;4379;59.744;18.206;2023-04-16T06:02:32;6.30;99.90
8684;DHT22;4379;59.744;18.206;2023-04-16T06:05:00;9.10;99.90
8684;DHT22;4379;59.744;18.206;2023-04-16T06:07:27;11.00;99.90
8684;DHT22;4379;59.744;18.206;2023-04-16T06:09:54;13.10;99.90
8684;DHT22;4379;59.744;18.206;2023-04-16T06:12:21;12.10;99.90
8684;DHT22;4379;59.744;18.206;2023-04-16T06:14:48;11.50;99.90
8684;DHT22;4379;59.744;18.206;2023-04-16T06:17:16;13.00;99.90
8684;DHT22;4379;59.744;18.206;2023-04-16T06:19:43;11.80;99.90
8684;DHT22;4379;59.744;18.206;2023-04-16T06:22:10;12.70;99.90
8684;DHT22;4379;59.744;18.206;2023-04-16T06:24:37;16.50;99.90
8684;DHT22;4379;59.744;18.206;2023-04-16T06:27:04;15.40;99.90
8684;DHT22;4379;59.744;18.206;2023-04-16T06:29:31;14.20;99.90
8684;DHT22;4379;59.744;18.206;2023-04-16T06:32:07;11.90;99.90
8684;DHT22;4379;59.744;18.206;2023-04-16T06:34:34;11.20;99.90
8684;DHT22;4379;59.744;18.206;2023-04-16T06:37:01;10.50;99.90
8684;DHT22;4379;59.744;18.206;2023-04-16T06:39:29;10.60;99.90
8684;DHT22;4379;59.744;18.206;2023-04-16T06:41:56;9.10;99.90
8684;DHT22;4379;59.744;18.206;2023-04-16T06:44:24;7.90;99.90
8684;DHT22;4379;59.744;18.206;2023-04-16T06:46:51;10.50;99.90
8684;DHT22;4379;59.744;18.206;2023-04-16T06:49:18;8.40;99.90
8684;DHT22;4379;59.744;18.206;2023-04-16T06:51:45;9.00;99.90
8684;DHT22;4379;59.744;18.206;2023-04-16T06:54:12;11.30;99.90
8684;DHT22;4379;59.744;18.206;2023-04-16T06:56:42;12.10;99.90
8684;DHT22;4379;59.744;18.206;2023-04-16T06:59:10;13.60;99.90
8684;DHT22;4379;59.744;18.206;2023-04-16T07:01:37;10.50;99.90
8684;DHT22;4379;59.744;18.206;2023-04-16T07:04:04;9.00;99.90
8684;DHT22;4379;59.744;18.206;2023-04-16T07:06:32;8.30;99.90
8684;DHT22;4379;59.744;18.206;2023-04-16T07:08:59;8.50;99.90
8684;DHT22;4379;59.744;18.206;2023-04-16T07:11:26;12.20;99.90
8684;DHT22;4379;59.744;18.206;2023-04-16T07:13:54;12.00;99.90
8684;DHT22;4379;59.744;18.206;2023-04-16T07:16:21;15.40;99.90
8684;DHT22;4379;59.744;18.206;2023-04-16T07:18:48;16.90;99.90
8684;DHT22;4379;59.744;18.206;2023-04-16T07:21:15;16.00;99.90
8684;DHT22;4379;59.744;18.206;2023-04-16T07:23:47;15.50;99.90
8684;DHT22;4379;59.744;18.206;2023-04-16T07:26:14;13.10;99.90
8684;DHT22;4379;59.744;18.206;2023-04-16T07:28:42;14.90;99.90
8684;DHT22;4379;59.744;18.206;2023-04-16T07:31:10;15.80;99.90
8684;DHT22;4379;59.744;18.206;2023-04-16T07:33:37;16.00;99.90
8684;DHT22;4379;59.744;18.206;2023-04-16T07:36:05;19.40;99.90
8684;DHT22;4379;59.744;18.206;2023-04-16T07:38:33;21.70;99.90
8684;DHT22;4379;59.744;18.206;2023-04-16T07:41:00;21.40;99.90
8684;DHT22;4379;59.744;18.206;2023-04-16T07:43:28;20.40;99.90
8684;DHT22;4379;59.744;18.206;2023-04-16T07:45:55;20.10;99.90
8684;DHT22;4379;59.744;18.206;2023-04-16T07:48:22;20.10;99.90
8684;DHT22;4379;59.744;18.206;2023-04-16T07:50:49;18.60;99.90
8684;DHT22;4379;59.744;18.206;2023-04-16T07:53:16;18.40;99.90
8684;DHT22;4379;59.744;18.206;2023-04-16T07:55:43;21.00;99.90
8684;DHT22;4379;59.744;18.206;2023-04-16T07:58:11;19.80;99.90
8684;DHT22;4379;59.744;18.206;2023-04-16T08:00:38;21.50;99.90
8684;DHT22;4379;59.744;18.206;2023-04-16T08:03:06;18.20;99.90
8684;DHT22;4379;59.744;18.206;2023-04-16T08:05:36;18.10;99.90
8684;DHT22;4379;59.744;18.206;2023-04-16T08:08:03;16.70;99.90
8684;DHT22;4379;59.744;18.206;2023-04-16T08:10:30;20.30;99.90
8684;DHT22;4379;59.744;18.206;2023-04-16T08:13:00;20.10;99.90
8684;DHT22;4379;59.744;18.206;2023-04-16T08:15:28;22.00;99.90
8684;DHT22;4379;59.744;18.206;2023-04-16T08:17:55;20.20;99.90
8684;DHT22;4379;59.744;18.206;2023-04-16T08:20:22;16.80;99.90
8684;DHT22;4379;59.744;18.206;2023-04-16T08:22:49;16.50;99.90
8684;DHT22;4379;59.744;18.206;2023-04-16T08:25:17;16.20;99.90
8684;DHT22;4379;59.744;18.206;2023-04-16T08:27:44;14.40;99.90
8684;DHT22;4379;59.744;18.206;2023-04-16T08:30:11;13.30;99.90
8684;DHT22;4379;59.744;18.206;2023-04-16T08:32:38;12.30;99.90
8684;DHT22;4379;59.744;18.206;2023-04-16T08:35:06;12.60;99.90
8684;DHT22;4379;59.744;18.206;2023-04-16T08:37:36;14.60;99.90
8684;DHT22;4379;59.744;18.206;2023-04-16T08:40:03;14.10;99.90
8684;DHT22;4379;59.744;18.206;2023-04-16T08:42:42;16.90;99.90
8684;DHT22;4379;59.744;18.206;2023-04-16T08:45:15;18.20;99.90
8684;DHT22;4379;59.744;18.206;2023-04-16T08:47:47;20.30;99.90
8684;DHT22;4379;59.744;18.206;2023-04-16T08:50:16;21.90;99.80
8684;DHT22;4379;59.744;18.206;2023-04-16T08:52:52;18.40;97.90
8684;DHT22;4379;59.744;18.206;2023-04-16T08:55:25;16.40;99.90
8684;DHT22;4379;59.744;18.206;2023-04-16T08:58:00;16.00;99.90
8684;DHT22;4379;59.744;18.206;2023-04-16T09:00:30;17.00;99.90
8684;DHT22;4379;59.744;18.206;2023-04-16T09:02:58;18.00;99.90
8684;DHT22;4379;59.744;18.206;2023-04-16T09:05:26;17.80;99.90
8684;DHT22;4379;59.744;18.206;2023-04-16T09:07:55;16.90;99.90
8684;DHT22;4379;59.744;18.206;2023-04-16T09:10:22;15.90;99.90
8684;DHT22;4379;59.744;18.206;2023-04-16T09:12:51;15.40;99.90
8684;DHT22;4379;59.744;18.206;2023-04-16T09:15:21;14.90;99.90
8684;DHT22;4379;59.744;18.206;2023-04-16T09:17:48;14.90;99.90
8684;DHT22;4379;59.744;18.206;2023-04-16T09:20:16;14.50;99.90
8684;DHT22;4379;59.744;18.206;2023-04-16T09:22:43;14.50;99.90
8684;DHT22;4379;59.744;18.206;2023-04-16T09:25:11;14.10;99.90
8684;DHT22;4379;59.744;18.206;2023-04-16T09:27:38;14.40;99.90
8684;DHT22;4379;59.744;18.206;2023-04-16T09:30:22;14.50;99.90
8684;DHT22;4379;59.744;18.206;2023-04-16T09:32:51;14.20;99.70
8684;DHT22;4379;59.744;18.206;2023-04-16T09:35:19;13.50;99.90
8684;DHT22;4379;59.744;18.206;2023-04-16T09:37:56;14.20;99.90
8684;DHT22;4379;59.744;18.206;2023-04-16T09:40:27;13.70;99.90
8684;DHT22;4379;59.744;18.206;2023-04-16T09:42:57;13.90;99.90
8684;DHT22;4379;59.744;18.206;2023-04-16T09:45:24;14.20;99.90
8684;DHT22;4379;59.744;18.206;2023-04-16T09:47:52;14.10;99.70
8684;DHT22;4379;59.744;18.206;2023-04-16T09:50:28;13.70;98.50
8684;DHT22;4379;59.744;18.206;2023-04-16T09:52:55;12.70;96.30
8684;DHT22;4379;59.744;18.206;2023-04-16T09:55:28;13.40;99.90
8684;DHT22;4379;59.744;18.206;2023-04-16T09:57:59;13.90;98.30
8684;DHT22;4379;59.744;18.206;2023-04-16T10:00:28;14.20;98.20
8684;DHT22;4379;59.744;18.206;2023-04-16T10:03:05;13.80;97.70
8684;DHT22;4379;59.744;18.206;2023-04-16T10:05:33;14.10;97.50
8684;DHT22;4379;59.744;18.206;2023-04-16T10:08:01;13.70;97.30
8684;DHT22;4379;59.744;18.206;2023-04-16T10:10:28;13.30;96.30
8684;DHT22;4379;59.744;18.206;2023-04-16T10:12:57;13.70;97.90
8684;DHT22;4379;59.744;18.206;2023-04-16T10:15:24;13.90;96.50
8684;DHT22;4379;59.744;18.206;2023-04-16T10:17:52;13.80;97.40
8684;DHT22;4379;59.744;18.206;2023-04-16T10:20:20;13.70;96.60
8684;DHT22;4379;59.744;18.206;2023-04-16T10:22:48;13.90;95.20
8684;DHT22;4379;59.744;18.206;2023-04-16T10:25:16;13.70;97.10
8684;DHT22;4379;59.744;18.206;2023-04-16T10:27:45;13.70;95.90
8684;DHT22;4379;59.744;18.206;2023-04-16T10:30:15;12.80;94.90
8684;DHT22;4379;59.744;18.206;2023-04-16T10:32:43;12.70;97.00
8684;DHT22;4379;59.744;18.206;2023-04-16T10:35:14;12.70;96.20
8684;DHT22;4379;59.744;18.206;2023-04-16T10:37:42;13.40;99.00
8684;DHT22;4379;59.744;18.206;2023-04-16T10:40:24;13.60;98.00
8684;DHT22;4379;59.744;18.206;2023-04-16T10:42:56;13.20;94.80
8684;DHT22;4379;59.744;18.206;2023-04-16T10:45:42;13.10;96.50
8684;DHT22;4379;59.744;18.206;2023-04-16T10:48:09;13.20;95.50
8684;DHT22;4379;59.744;18.206;2023-04-16T10:50:37;13.30;96.00
8684;DHT22;4379;59.744;18.206;2023-04-16T10:53:19;13.60;95.60
8684;DHT22;4379;59.744;18.206;2023-04-16T10:58:34;13.20;93.60
8684;DHT22;4379;59.744;18.206;2023-04-16T11:01:12;13.00;94.60
8684;DHT22;4379;59.744;18.206;2023-04-16T11:03:50;12.50;94.30
8684;DHT22;4379;59.744;18.206;2023-04-16T11:06:24;12.30;95.50
8684;DHT22;4379;59.744;18.206;2023-04-16T11:08:52;13.00;96.50
8684;DHT22;4379;59.744;18.206;2023-04-16T11:11:21;13.50;94.70
8684;DHT22;4379;59.744;18.206;2023-04-16T11:13:48;13.40;94.70
8684;DHT22;4379;59.744;18.206;2023-04-16T11:16:16;12.70;94.40
8684;DHT22;4379;59.744;18.206;2023-04-16T11:18:44;12.90;94.70
8684;DHT22;4379;59.744;18.206;2023-04-16T11:21:18;12.80;93.90
8684;DHT22;4379;59.744;18.206;2023-04-16T11:23:50;12.40;94.70
8684;DHT22;4379;59.744;18.206;2023-04-16T11:26:27;12.40;94.90
8684;DHT22;4379;59.744;18.206;2023-04-16T11:28:58;13.00;95.80
8684;DHT22;4379;59.744;18.206;2023-04-16T11:31:26;12.90;94.80
8684;DHT22;4379;59.744;18.206;2023-04-16T11:33:55;12.60;93.60
8684;DHT22;4379;59.744;18.206;2023-04-16T11:36:22;12.70;95.10
8684;DHT22;4379;59.744;18.206;2023-04-16T11:39:00;12.60;93.30
8684;DHT22;4379;59.744;18.206;2023-04-16T11:41:29;12.80;94.40
8684;DHT22;4379;59.744;18.206;2023-04-16T11:43:56;12.70;95.00
8684;DHT22;4379;59.744;18.206;2023-04-16T11:46:36;12.50;94.90
8684;DHT22;4379;59.744;18.206;2023-04-16T11:49:04;12.30;94.70
8684;DHT22;4379;59.744;18.206;2023-04-16T11:51:31;12.50;95.60
8684;DHT22;4379;59.744;18.206;2023-04-16T11:53:58;12.70;94.30
8684;DHT22;4379;59.744;18.206;2023-04-16T11:56:29;12.80;94.50
8684;DHT22;4379;59.744;18.206;2023-04-16T11:59:09;12.40;94.20
8684;DHT22;4379;59.744;18.206;2023-04-16T12:01:39;12.50;95.70
8684;DHT22;4379;59.744;18.206;2023-04-16T12:04:11;12.30;94.80
8684;DHT22;4379;59.744;18.206;2023-04-16T12:06:39;12.60;95.20
8684;DHT22;4379;59.744;18.206;2023-04-16T12:09:23;12.80;95.70
8684;DHT22;4379;59.744;18.206;2023-04-16T12:11:51;12.80;95.40
8684;DHT22;4379;59.744;18.206;2023-04-16T12:14:18;13.20;95.60
8684;DHT22;4379;59.744;18.206;2023-04-16T12:16:45;13.30;95.40
8684;DHT22;4379;59.744;18.206;2023-04-16T12:19:13;13.60;94.90
8684;DHT22;4379;59.744;18.206;2023-04-16T12:21:48;13.30;94.90
8684;DHT22;4379;59.744;18.206;2023-04-16T12:24:17;13.20;94.10
8684;DHT22;4379;59.744;18.206;2023-04-16T12:26:53;13.10;94.70
8684;DHT22;4379;59.744;18.206;2023-04-16T12:29:29;13.10;95.20
8684;DHT22;4379;59.744;18.206;2023-04-16T12:31:59;13.00;95.50
8684;DHT22;4379;59.744;18.206;2023-04-16T12:34:27;12.90;94.70
8684;DHT22;4379;59.744;18.206;2023-04-16T12:37:14;12.90;95.10
8684;DHT22;4379;59.744;18.206;2023-04-16T12:39:42;13.10;95.20
8684;DHT22;4379;59.744;18.206;2023-04-16T12:42:09;12.50;94.20
8684;DHT22;4379;59.744;18.206;2023-04-16T12:44:41;12.70;94.80
8684;DHT22;4379;59.744;18.206;2023-04-16T12:47:08;12.60;94.80
8684;DHT22;4379;59.744;18.206;2023-04-16T12:49:36;12.20;95.60
8684;DHT22;4379;59.744;18.206;2023-04-16T12:52:03;12.00;95.40
8684;DHT22;4379;59.744;18.206;2023-04-16T12:54:31;12.40;95.30
8684;DHT22;4379;59.744;18.206;2023-04-16T12:56:58;11.90;95.30
8684;DHT22;4379;59.744;18.206;2023-04-16T12:59:25;11.90;95.10
8684;DHT22;4379;59.744;18.206;2023-04-16T13:01:52;12.10;95.90
8684;DHT22;4379;59.744;18.206;2023-04-16T13:04:19;12.40;95.90
8684;DHT22;4379;59.744;18.206;2023-04-16T13:06:53;12.70;96.20
8684;DHT22;4379;59.744;18.206;2023-04-16T13:09:21;12.60;96.10
8684;DHT22;4379;59.744;18.206;2023-04-16T13:11:48;12.50;98.10
8684;DHT22;4379;59.744;18.206;2023-04-16T13:14:15;12.60;96.10
8684;DHT22;4379;59.744;18.206;2023-04-16T13:16:42;12.70;95.50
8684;DHT22;4379;59.744;18.206;2023-04-16T13:19:09;12.40;95.00
8684;DHT22;4379;59.744;18.206;2023-04-16T13:21:37;12.40;95.90
8684;DHT22;4379;59.744;18.206;2023-04-16T13:24:04;12.50;95.70
8684;DHT22;4379;59.744;18.206;2023-04-16T13:26:32;12.30;95.90
8684;DHT22;4379;59.744;18.206;2023-04-16T13:28:59;12.30;95.50
8684;DHT22;4379;59.744;18.206;2023-04-16T13:31:26;12.30;95.80
8684;DHT22;4379;59.744;18.206;2023-04-16T13:33:53;12.20;95.60
8684;DHT22;4379;59.744;18.206;2023-04-16T13:36:21;12.50;95.60
8684;DHT22;4379;59.744;18.206;2023-04-16T13:38:48;12.50;96.80
8684;DHT22;4379;59.744;18.206;2023-04-16T13:41:15;12.60;97.00
8684;DHT22;4379;59.744;18.206;2023-04-16T13:43:42;12.40;96.00
8684;DHT22;4379;59.744;18.206;2023-04-16T13:46:09;12.40;96.30
8684;DHT22;4379;59.744;18.206;2023-04-16T13:48:37;12.00;95.30
8684;DHT22;4379;59.744;18.206;2023-04-16T13:51:04;11.90;95.80
8684;DHT22;4379;59.744;18.206;2023-04-16T13:53:32;12.00;96.10
8684;DHT22;4379;59.744;18.206;2023-04-16T13:55:59;11.70;96.20
8684;DHT22;4379;59.744;18.206;2023-04-16T13:58:29;12.00;96.60
8684;DHT22;4379;59.744;18.206;2023-04-16T14:00:56;12.20;96.00
8684;DHT22;4379;59.744;18.206;2023-04-16T14:03:26;12.10;95.70
8684;DHT22;4379;59.744;18.206;2023-04-16T14:05:54;12.20;97.60
8684;DHT22;4379;59.744;18.206;2023-04-16T14:08:21;12.40;97.40
8684;DHT22;4379;59.744;18.206;2023-04-16T14:10:48;12.30;96.50
8684;DHT22;4379;59.744;18.206;2023-04-16T14:13:15;12.00;97.20
8684;DHT22;4379;59.744;18.206;2023-04-16T14:15:42;12.10;97.30
8684;DHT22;4379;59.744;18.206;2023-04-16T14:18:10;12.30;97.60
8684;DHT22;4379;59.744;18.206;2023-04-16T14:20:37;12.30;96.60
8684;DHT22;4379;59.744;18.206;2023-04-16T14:23:06;12.20;95.70
8684;DHT22;4379;59.744;18.206;2023-04-16T14:25:33;11.80;96.60
8684;DHT22;4379;59.744;18.206;2023-04-16T14:28:01;12.00;98.00
8684;DHT22;4379;59.744;18.206;2023-04-16T14:30:28;12.00;97.30
8684;DHT22;4379;59.744;18.206;2023-04-16T14:32:55;12.00;97.20
8684;DHT22;4379;59.744;18.206;2023-04-16T14:35:23;12.10;97.60
8684;DHT22;4379;59.744;18.206;2023-04-16T14:37:50;11.80;99.00
8684;DHT22;4379;59.744;18.206;2023-04-16T14:40:18;11.70;97.10
8684;DHT22;4379;59.744;18.206;2023-04-16T14:42:45;11.50;98.50
8684;DHT22;4379;59.744;18.206;2023-04-16T14:45:12;11.60;97.80
8684;DHT22;4379;59.744;18.206;2023-04-16T14:47:39;11.80;98.20
8684;DHT22;4379;59.744;18.206;2023-04-16T14:50:12;11.90;99.00
8684;DHT22;4379;59.744;18.206;2023-04-16T14:52:42;12.00;98.10
8684;DHT22;4379;59.744;18.206;2023-04-16T14:55:11;11.80;97.90
8684;DHT22;4379;59.744;18.206;2023-04-16T14:57:38;11.80;98.50
8684;DHT22;4379;59.744;18.206;2023-04-16T15:00:07;12.00;98.50
8684;DHT22;4379;59.744;18.206;2023-04-16T15:02:36;11.90;97.90
8684;DHT22;4379;59.744;18.206;2023-04-16T15:05:04;11.90;97.80
8684;DHT22;4379;59.744;18.206;2023-04-16T15:07:33;11.70;98.50
8684;DHT22;4379;59.744;18.206;2023-04-16T15:10:01;11.70;99.70
8684;DHT22;4379;59.744;18.206;2023-04-16T15:12:28;11.80;98.90
8684;DHT22;4379;59.744;18.206;2023-04-16T15:14:55;11.60;99.90
8684;DHT22;4379;59.744;18.206;2023-04-16T15:17:22;11.50;99.70
8684;DHT22;4379;59.744;18.206;2023-04-16T15:19:50;11.30;98.90
8684;DHT22;4379;59.744;18.206;2023-04-16T15:22:18;11.10;99.90
8684;DHT22;4379;59.744;18.206;2023-04-16T15:24:45;11.30;99.90
8684;DHT22;4379;59.744;18.206;2023-04-16T15:27:13;11.40;99.90
8684;DHT22;4379;59.744;18.206;2023-04-16T15:29:41;11.30;99.90
8684;DHT22;4379;59.744;18.206;2023-04-16T15:32:09;11.40;99.00
8684;DHT22;4379;59.744;18.206;2023-04-16T15:34:37;11.30;98.70
8684;DHT22;4379;59.744;18.206;2023-04-16T15:37:04;11.40;99.60
8684;DHT22;4379;59.744;18.206;2023-04-16T15:39:31;11.40;99.80
8684;DHT22;4379;59.744;18.206;2023-04-16T15:41:59;11.20;99.20
8684;DHT22;4379;59.744;18.206;2023-04-16T15:44:30;11.20;99.80
8684;DHT22;4379;59.744;18.206;2023-04-16T15:46:58;11.00;99.60
8684;DHT22;4379;59.744;18.206;2023-04-16T15:49:26;10.90;99.90
8684;DHT22;4379;59.744;18.206;2023-04-16T15:51:54;10.70;99.80
8684;DHT22;4379;59.744;18.206;2023-04-16T15:54:22;10.60;99.90
8684;DHT22;4379;59.744;18.206;2023-04-16T15:56:49;10.60;99.90